Time;durP1;ratioP1;P1;durP2;ratioP2;P2;SDS_P1;SDS_P2;PMS_P1;PMS_P2;Temp;Humidity;BMP_temperature;BMP_pressure;BME280_temperature;BME280_humidity;BME280_pressure;Samples;Min_cycle;Max_cycle;Signal;HPM_P1;HPM_P2
2021/04/14 00:01:01;;;;;;;4.13;3.10;;;;;;;;;;5054766;28;20581;-45
2021/04/14 00:03:31;;;;;;;3.50;3.20;;;;;;;;;;5058977;28;20172;-42
2021/04/14 00:05:56;;;;;;;3.33;3.13;;;;;;;;;;5055186;28;20180;-42
2021/04/14 00:08:21;;;;;;;4.07;3.60;;;;;;;;;;5050608;28;20660;-42
2021/04/14 00:10:47;;;;;;;3.77;3.40;;;;;;;;;;5056256;28;20195;-47
2021/04/14 00:13:14;;;;;;;4.13;3.67;;;;;;;;;;5055842;28;20175;-44
2021/04/14 00:15:43;;;;;;;3.33;3.03;;;;;;;;;;5061601;28;20163;-42
2021/04/14 00:18:08;;;;;;;3.77;3.47;;;;;;;;;;5060037;28;20601;-44
2021/04/14 00:20:34;;;;;;;3.27;3.00;;;;;;;;;;5064473;28;20930;-42
2021/04/14 00:22:59;;;;;;;3.37;3.07;;;;;;;;;;5070708;28;20175;-41
2021/04/14 00:25:25;;;;;;;3.93;3.53;;;;;;;;;;5063678;28;20199;-42
2021/04/14 00:27:51;;;;;;;3.97;3.67;;;;;;;;;;5066471;28;20673;-42
2021/04/14 00:30:16;;;;;;;4.80;3.47;;;;;;;;;;5055711;28;20652;-43
2021/04/14 00:32:41;;;;;;;3.30;3.10;;;;;;;;;;5059499;28;20175;-41
2021/04/14 00:35:07;;;;;;;4.90;3.10;;;;;;;;;;5057410;28;20172;-42
2021/04/14 00:37:32;;;;;;;3.90;3.60;;;;;;;;;;5064745;28;20667;-43
2021/04/14 00:39:58;;;;;;;3.87;3.57;;;;;;;;;;5067801;28;20205;-44
2021/04/14 00:42:23;;;;;;;4.20;3.53;;;;;;;;;;5060879;28;20179;-43
2021/04/14 00:44:48;;;;;;;3.83;3.40;;;;;;;;;;5065467;28;20184;-41
2021/04/14 00:47:13;;;;;;;4.13;3.60;;;;;;;;;;5061872;28;20176;-42
2021/04/14 00:49:38;;;;;;;7.93;3.80;;;;;;;;;;5059294;28;20245;-43
2021/04/14 00:52:04;;;;;;;5.53;4.20;;;;;;;;;;5063708;28;20660;-44
2021/04/14 00:54:29;;;;;;;3.70;3.30;;;;;;;;;;5068166;28;20182;-43
2021/04/14 00:56:54;;;;;;;5.45;4.35;;;;;;;;;;5064426;28;20665;-43
2021/04/14 00:59:19;;;;;;;4.35;3.53;;;;;;;;;;5063249;28;20179;-43
2021/04/14 01:01:44;;;;;;;3.83;3.45;;;;;;;;;;5057487;28;20293;-43
2021/04/14 01:04:09;;;;;;;3.73;3.23;;;;;;;;;;5066363;28;20167;-43
2021/04/14 01:06:34;;;;;;;3.55;3.25;;;;;;;;;;5058772;28;20252;-43
2021/04/14 01:09:00;;;;;;;3.77;3.40;;;;;;;;;;5054237;28;20172;-45
2021/04/14 01:11:26;;;;;;;3.80;3.50;;;;;;;;;;5055069;28;20253;-49
2021/04/14 01:13:52;;;;;;;4.47;3.33;;;;;;;;;;5050231;28;20172;-43
2021/04/14 01:16:17;;;;;;;3.83;3.43;;;;;;;;;;5049667;28;20932;-44
2021/04/14 01:18:42;;;;;;;3.43;3.13;;;;;;;;;;5050724;28;20172;-42
2021/04/14 01:21:10;;;;;;;4.33;3.30;;;;;;;;;;5054258;28;20233;-42
2021/04/14 01:23:35;;;;;;;7.03;3.50;;;;;;;;;;5055450;28;20272;-43
2021/04/14 01:26:00;;;;;;;3.97;3.57;;;;;;;;;;5055388;28;20700;-42
2021/04/14 01:28:30;;;;;;;4.37;3.90;;;;;;;;;;5066179;28;20168;-43
2021/04/14 01:30:56;;;;;;;4.00;3.70;;;;;;;;;;5052934;28;20222;-42
2021/04/14 01:33:22;;;;;;;4.00;3.70;;;;;;;;;;5050406;28;20658;-42
2021/04/14 01:35:47;;;;;;;4.33;3.90;;;;;;;;;;5054375;28;20175;-42
2021/04/14 01:38:13;;;;;;;3.53;3.23;;;;;;;;;;5067029;28;20598;-42
2021/04/14 01:40:38;;;;;;;4.40;4.10;;;;;;;;;;5060041;28;20203;-42
2021/04/14 01:43:04;;;;;;;3.40;3.20;;;;;;;;;;5057939;28;20187;-43
2021/04/14 01:45:31;;;;;;;3.30;2.90;;;;;;;;;;5056677;28;20224;-43
2021/04/14 01:47:56;;;;;;;3.50;3.20;;;;;;;;;;5050725;28;20602;-43
2021/04/14 01:50:21;;;;;;;6.07;4.47;;;;;;;;;;5052509;28;20644;-44
2021/04/14 01:52:47;;;;;;;5.90;4.90;;;;;;;;;;5061908;28;20203;-43
2021/04/14 01:55:12;;;;;;;6.30;3.50;;;;;;;;;;5059979;28;20183;-42
2021/04/14 01:57:37;;;;;;;5.17;4.00;;;;;;;;;;5052378;28;20248;-42
2021/04/14 02:00:24;;;;;;;3.70;3.30;;;;;;;;;;5048254;28;20175;-43
2021/04/14 02:02:49;;;;;;;7.00;4.87;;;;;;;;;;5059694;28;20190;-43
2021/04/14 02:05:15;;;;;;;4.90;4.00;;;;;;;;;;5061171;28;20753;-43
2021/04/14 02:07:40;;;;;;;4.17;3.87;;;;;;;;;;5051634;28;20240;-43
2021/04/14 02:10:07;;;;;;;4.33;3.93;;;;;;;;;;5061301;28;20275;-43
2021/04/14 02:12:32;;;;;;;5.87;4.03;;;;;;;;;;5058096;28;20270;-42
2021/04/14 02:14:58;;;;;;;3.70;3.50;;;;;;;;;;5058903;28;20680;-42
2021/04/14 02:17:23;;;;;;;4.70;4.30;;;;;;;;;;5060735;28;20225;-42
2021/04/14 02:19:49;;;;;;;4.90;3.83;;;;;;;;;;5051872;28;20178;-42
2021/04/14 02:22:14;;;;;;;4.73;4.33;;;;;;;;;;5057909;28;20171;-42
2021/04/14 02:24:39;;;;;;;4.38;4.07;;;;;;;;;;5061400;28;20848;-43
2021/04/14 02:27:05;;;;;;;6.20;4.50;;;;;;;;;;5058895;28;20668;-44
2021/04/14 02:29:30;;;;;;;4.80;4.33;;;;;;;;;;5048041;28;20192;-43
2021/04/14 02:31:55;;;;;;;7.63;4.63;;;;;;;;;;5062681;28;20178;-43
2021/04/14 02:34:20;;;;;;;4.30;3.90;;;;;;;;;;5054253;28;20255;-43
2021/04/14 02:36:45;;;;;;;4.90;4.45;;;;;;;;;;5061361;28;20234;-44
2021/04/14 02:39:11;;;;;;;4.78;4.38;;;;;;;;;;5058072;28;20308;-43
2021/04/14 02:41:37;;;;;;;5.70;4.03;;;;;;;;;;5049594;28;20551;-42
2021/04/14 02:44:03;;;;;;;4.23;3.93;;;;;;;;;;5048278;28;20597;-43
2021/04/14 02:46:28;;;;;;;6.53;5.03;;;;;;;;;;5063722;28;20520;-42
2021/04/14 02:48:53;;;;;;;7.27;4.50;;;;;;;;;;5054510;28;20228;-42
2021/04/14 02:51:19;;;;;;;5.17;4.60;;;;;;;;;;5058445;28;20459;-43
2021/04/14 02:53:44;;;;;;;6.50;4.73;;;;;;;;;;5048408;28;20175;-43
2021/04/14 02:56:09;;;;;;;4.85;4.45;;;;;;;;;;5062852;28;20195;-43
2021/04/14 02:58:35;;;;;;;7.13;4.67;;;;;;;;;;5047738;28;20219;-43
2021/04/14 03:01:00;;;;;;;4.90;4.20;;;;;;;;;;5057423;28;20233;-43
2021/04/14 03:03:27;;;;;;;5.00;4.60;;;;;;;;;;5047969;28;20266;-42
2021/04/14 03:05:53;;;;;;;9.97;4.87;;;;;;;;;;5066341;28;20598;-42
2021/04/14 03:08:18;;;;;;;5.60;4.10;;;;;;;;;;5066015;28;21215;-42
2021/04/14 03:10:43;;;;;;;6.17;5.43;;;;;;;;;;5054746;28;20203;-42
2021/04/14 03:13:08;;;;;;;4.03;3.60;;;;;;;;;;5073454;28;20170;-43
2021/04/14 03:15:37;;;;;;;7.13;4.50;;;;;;;;;;5059154;28;20206;-43
2021/04/14 03:18:02;;;;;;;8.93;3.73;;;;;;;;;;5068651;28;20208;-43
2021/04/14 03:20:27;;;;;;;4.93;3.43;;;;;;;;;;5065803;28;21175;-43
2021/04/14 03:22:55;;;;;;;7.17;4.10;;;;;;;;;;5070641;28;20187;-42
2021/04/14 03:25:20;;;;;;;4.83;4.20;;;;;;;;;;5061825;28;20175;-43
2021/04/14 03:27:46;;;;;;;4.23;3.93;;;;;;;;;;5059301;28;20610;-43
2021/04/14 03:30:11;;;;;;;5.90;4.57;;;;;;;;;;5054330;28;20633;-43
2021/04/14 03:32:37;;;;;;;4.90;4.50;;;;;;;;;;5056789;28;20172;-43
2021/04/14 03:35:04;;;;;;;6.07;4.13;;;;;;;;;;5051645;28;20190;-43
2021/04/14 03:37:29;;;;;;;3.90;3.53;;;;;;;;;;5055478;28;20630;-43
2021/04/14 03:39:55;;;;;;;6.75;4.35;;;;;;;;;;5055785;28;21143;-43
2021/04/14 03:42:20;;;;;;;6.67;4.00;;;;;;;;;;5055868;28;20201;-42
2021/04/14 03:44:46;;;;;;;7.40;4.60;;;;;;;;;;5067667;28;20173;-42
2021/04/14 03:47:11;;;;;;;5.83;3.83;;;;;;;;;;5054910;28;20179;-41
2021/04/14 03:49:36;;;;;;;5.38;3.83;;;;;;;;;;5055736;28;20613;-41
2021/04/14 03:52:02;;;;;;;4.43;4.10;;;;;;;;;;5053904;28;20175;-41
2021/04/14 03:54:27;;;;;;;5.30;4.80;;;;;;;;;;5048354;28;20691;-41
2021/04/14 03:56:52;;;;;;;4.60;4.20;;;;;;;;;;5056291;28;20176;-41
2021/04/14 03:59:18;;;;;;;11.32;5.25;;;;;;;;;;5048717;28;20180;-41
2021/04/14 04:01:43;;;;;;;5.60;4.80;;;;;;;;;;5048883;28;20190;-41
2021/04/14 04:04:08;;;;;;;6.40;4.00;;;;;;;;;;5047481;28;20259;-43
2021/04/14 04:06:33;;;;;;;4.33;3.93;;;;;;;;;;5059494;28;20594;-42
2021/04/14 04:08:58;;;;;;;5.93;4.07;;;;;;;;;;5059275;28;20178;-41
2021/04/14 04:11:24;;;;;;;7.65;4.30;;;;;;;;;;5060361;28;20245;-42
2021/04/14 04:13:50;;;;;;;4.00;3.70;;;;;;;;;;5053044;28;20778;-41
2021/04/14 04:16:16;;;;;;;6.47;3.90;;;;;;;;;;5052684;28;20605;-41
2021/04/14 04:18:41;;;;;;;6.10;4.40;;;;;;;;;;5050966;28;20601;-41
2021/04/14 04:21:07;;;;;;;10.47;5.30;;;;;;;;;;5060822;28;20168;-43
2021/04/14 04:23:32;;;;;;;4.50;4.20;;;;;;;;;;5064005;28;20179;-43
2021/04/14 04:25:58;;;;;;;6.90;4.87;;;;;;;;;;5061389;28;20231;-42
2021/04/14 04:28:23;;;;;;;5.67;4.80;;;;;;;;;;5070372;28;20660;-43
2021/04/14 04:30:50;;;;;;;5.10;4.30;;;;;;;;;;5060365;28;20201;-41
2021/04/14 04:33:15;;;;;;;7.70;4.27;;;;;;;;;;5057077;28;20202;-41
2021/04/14 04:35:40;;;;;;;9.67;4.30;;;;;;;;;;5049695;28;20605;-42
2021/04/14 04:38:06;;;;;;;5.18;4.68;;;;;;;;;;5050031;28;20230;-48
2021/04/14 04:40:31;;;;;;;4.93;4.53;;;;;;;;;;5048685;28;20214;-41
2021/04/14 04:42:57;;;;;;;5.90;4.60;;;;;;;;;;5050926;28;20170;-42
2021/04/14 04:45:23;;;;;;;6.47;5.30;;;;;;;;;;5062654;28;20198;-42
2021/04/14 04:47:49;;;;;;;5.07;4.30;;;;;;;;;;5058519;28;20176;-42
2021/04/14 04:50:15;;;;;;;4.17;3.77;;;;;;;;;;5065419;28;20643;-42
2021/04/14 04:52:41;;;;;;;7.20;4.87;;;;;;;;;;5065910;28;20177;-42
2021/04/14 04:55:06;;;;;;;6.13;4.77;;;;;;;;;;5050591;28;20610;-42
2021/04/14 04:57:32;;;;;;;6.00;4.80;;;;;;;;;;5050309;28;20182;-42
2021/04/14 04:59:57;;;;;;;6.13;5.53;;;;;;;;;;5066056;28;20177;-45
2021/04/14 05:02:22;;;;;;;5.73;5.10;;;;;;;;;;5066425;28;20206;-43
2021/04/14 05:04:47;;;;;;;6.27;3.80;;;;;;;;;;5070351;28;20197;-43
2021/04/14 05:07:12;;;;;;;6.53;4.20;;;;;;;;;;5052526;28;20585;-41
2021/04/14 05:09:38;;;;;;;6.30;4.37;;;;;;;;;;5051823;28;20230;-41
2021/04/14 05:12:03;;;;;;;7.77;5.40;;;;;;;;;;5056788;28;20253;-42
2021/04/14 05:14:28;;;;;;;7.90;4.90;;;;;;;;;;5054888;28;20195;-42
2021/04/14 05:16:53;;;;;;;8.57;5.53;;;;;;;;;;5054842;28;20175;-43
2021/04/14 05:19:19;;;;;;;6.67;5.10;;;;;;;;;;5063259;28;20202;-41
2021/04/14 05:21:45;;;;;;;7.23;5.13;;;;;;;;;;5063421;28;20182;-43
2021/04/14 05:24:10;;;;;;;10.20;5.50;;;;;;;;;;5053556;28;20230;-42
2021/04/14 05:26:36;;;;;;;9.83;5.80;;;;;;;;;;5053773;28;20594;-43
2021/04/14 05:29:02;;;;;;;7.70;5.53;;;;;;;;;;5055055;28;20259;-42
2021/04/14 05:31:30;;;;;;;6.57;5.30;;;;;;;;;;5046736;28;21096;-42
2021/04/14 05:33:56;;;;;;;5.23;4.73;;;;;;;;;;5048588;28;20574;-41
2021/04/14 05:36:21;;;;;;;8.63;5.53;;;;;;;;;;5048418;28;20590;-42
2021/04/14 05:38:46;;;;;;;5.77;5.07;;;;;;;;;;5048528;28;20196;-42
2021/04/14 05:41:11;;;;;;;7.20;5.43;;;;;;;;;;5048514;28;20268;-43
2021/04/14 05:43:39;;;;;;;6.50;5.40;;;;;;;;;;5061257;28;20273;-42
2021/04/14 05:46:05;;;;;;;6.27;5.17;;;;;;;;;;5054832;28;20180;-42
2021/04/14 05:48:30;;;;;;;6.60;6.00;;;;;;;;;;5048274;28;20571;-42
2021/04/14 05:50:59;;;;;;;6.95;5.50;;;;;;;;;;5049008;28;20655;-43
2021/04/14 05:53:24;;;;;;;8.93;5.20;;;;;;;;;;5048300;28;20182;-41
2021/04/14 05:55:50;;;;;;;7.93;5.37;;;;;;;;;;5048176;28;20721;-41
2021/04/14 05:58:15;;;;;;;6.33;5.30;;;;;;;;;;5057023;28;20246;-42
2021/04/14 06:00:40;;;;;;;6.70;4.80;;;;;;;;;;5059219;28;20648;-42
2021/04/14 06:03:05;;;;;;;6.50;5.70;;;;;;;;;;5059433;28;20194;-42
2021/04/14 06:05:31;;;;;;;10.03;5.67;;;;;;;;;;5063835;28;20187;-42
2021/04/14 06:07:56;;;;;;;9.60;6.40;;;;;;;;;;5050886;28;20702;-42
2021/04/14 06:10:22;;;;;;;10.60;5.60;;;;;;;;;;5049263;28;20670;-43
2021/04/14 06:12:48;;;;;;;10.60;5.43;;;;;;;;;;5048768;28;20230;-43
2021/04/14 06:15:14;;;;;;;7.17;5.50;;;;;;;;;;5058368;28;20606;-41
2021/04/14 06:17:40;;;;;;;9.60;5.80;;;;;;;;;;5048272;28;20255;-42
2021/04/14 06:20:06;;;;;;;9.20;6.07;;;;;;;;;;5063296;28;20705;-42
2021/04/14 06:22:31;;;;;;;8.63;5.83;;;;;;;;;;5063690;28;20176;-43
2021/04/14 06:24:56;;;;;;;12.07;6.23;;;;;;;;;;5061463;28;20611;-42
2021/04/14 06:27:36;;;;;;;7.43;5.93;;;;;;;;;;5057202;28;20642;-42
2021/04/14 06:30:02;;;;;;;5.70;5.20;;;;;;;;;;5053269;28;20210;-43
2021/04/14 06:32:27;;;;;;;7.47;6.50;;;;;;;;;;5051737;28;20651;-42
2021/04/14 06:34:53;;;;;;;9.67;6.37;;;;;;;;;;5051394;28;20186;-43
2021/04/14 06:37:19;;;;;;;15.90;8.03;;;;;;;;;;5057595;28;20256;-42
2021/04/14 06:39:48;;;;;;;9.43;6.40;;;;;;;;;;5046404;28;20948;-42
2021/04/14 06:42:27;;;;;;;7.43;6.13;;;;;;;;;;5061075;28;20535;-43
2021/04/14 06:44:58;;;;;;;10.23;7.43;;;;;;;;;;5052433;28;20640;-43
2021/04/14 06:47:32;;;;;;;13.80;7.17;;;;;;;;;;5056478;28;20701;-43
2021/04/14 06:50:01;;;;;;;8.23;7.13;;;;;;;;;;5055591;28;20761;-43
2021/04/14 06:52:36;;;;;;;8.07;6.20;;;;;;;;;;5057930;28;20655;-42
2021/04/14 06:55:24;;;;;;;7.67;6.33;;;;;;;;;;5055292;28;20628;-42
2021/04/14 06:57:55;;;;;;;13.40;7.50;;;;;;;;;;5054320;28;20602;-43
2021/04/14 07:00:24;;;;;;;10.63;8.07;;;;;;;;;;5066018;28;20697;-42
2021/04/14 07:03:03;;;;;;;13.40;8.50;;;;;;;;;;5051366;28;20957;-42
2021/04/14 07:05:31;;;;;;;9.47;8.13;;;;;;;;;;5052338;28;20885;-42
2021/04/14 07:07:57;;;;;;;13.90;7.67;;;;;;;;;;5057958;28;21006;-42
2021/04/14 07:10:24;;;;;;;10.07;7.60;;;;;;;;;;5061627;28;20642;-42
2021/04/14 07:12:51;;;;;;;8.27;7.57;;;;;;;;;;5051171;28;20699;-42
2021/04/14 07:15:18;;;;;;;10.83;7.03;;;;;;;;;;5047674;28;20710;-42
2021/04/14 07:17:43;;;;;;;10.70;7.80;;;;;;;;;;5049448;28;20608;-43
2021/04/14 07:20:29;;;;;;;7.10;6.40;;;;;;;;;;5050142;28;20701;-43
2021/04/14 07:23:10;;;;;;;8.93;6.20;;;;;;;;;;5050433;28;20586;-43
2021/04/14 07:25:50;;;;;;;11.77;6.70;;;;;;;;;;5054677;28;20620;-43
2021/04/14 07:28:24;;;;;;;10.67;6.50;;;;;;;;;;5050708;28;20578;-41
2021/04/14 07:30:57;;;;;;;10.47;6.60;;;;;;;;;;5051104;28;20791;-43
2021/04/14 07:33:32;;;;;;;9.30;7.57;;;;;;;;;;5050556;28;20585;-42
2021/04/14 07:36:03;;;;;;;10.40;7.43;;;;;;;;;;5053583;28;20621;-42
2021/04/14 07:38:50;;;;;;;9.73;7.47;;;;;;;;;;5071026;28;20933;-42
2021/04/14 07:41:33;;;;;;;7.53;6.83;;;;;;;;;;5070782;28;21517;-43
2021/04/14 07:44:04;;;;;;;18.53;7.20;;;;;;;;;;5070599;28;20651;-42
2021/04/14 07:46:29;;;;;;;11.00;8.40;;;;;;;;;;5053737;28;20954;-42
2021/04/14 07:48:56;;;;;;;11.00;7.30;;;;;;;;;;5069048;28;20593;-43
2021/04/14 07:51:22;;;;;;;9.73;7.30;;;;;;;;;;5070517;28;20195;-42
2021/04/14 07:53:59;;;;;;;11.43;7.17;;;;;;;;;;5070229;28;20668;-46
2021/04/14 07:56:24;;;;;;;12.00;7.67;;;;;;;;;;5062768;28;20606;-41
2021/04/14 07:58:59;;;;;;;10.40;6.90;;;;;;;;;;5050055;28;20700;-42
2021/04/14 08:01:26;;;;;;;7.00;6.30;;;;;;;;;;5049769;28;20542;-42
2021/04/14 08:03:52;;;;;;;7.40;6.60;;;;;;;;;;5050091;28;20644;-43
2021/04/14 08:06:23;;;;;;;6.27;5.63;;;;;;;;;;5049645;28;20607;-42
2021/04/14 08:08:49;;;;;;;6.83;5.70;;;;;;;;;;5049700;28;20587;-42
2021/04/14 08:11:32;;;;;;;9.53;5.33;;;;;;;;;;5049804;28;20606;-42
2021/04/14 08:14:10;;;;;;;8.20;5.10;;;;;;;;;;5049873;28;20257;-42
2021/04/14 08:16:38;;;;;;;8.20;4.90;;;;;;;;;;5049442;28;20932;-43
2021/04/14 08:19:05;;;;;;;8.33;5.40;;;;;;;;;;5049822;28;20610;-43
2021/04/14 08:21:33;;;;;;;10.93;5.87;;;;;;;;;;5049515;28;20677;-43
2021/04/14 08:24:00;;;;;;;7.90;5.27;;;;;;;;;;5049236;28;20625;-43
2021/04/14 08:26:26;;;;;;;9.37;4.73;;;;;;;;;;5061927;28;20604;-43
2021/04/14 08:28:52;;;;;;;7.73;4.47;;;;;;;;;;5069715;28;20693;-44
2021/04/14 08:31:35;;;;;;;5.40;3.80;;;;;;;;;;5069082;28;20211;-43
2021/04/14 08:34:08;;;;;;;10.43;4.50;;;;;;;;;;5068988;28;21029;-42
2021/04/14 08:36:40;;;;;;;6.27;4.50;;;;;;;;;;5067411;28;21184;-44
2021/04/14 08:39:16;;;;;;;9.07;4.53;;;;;;;;;;5069125;28;21201;-42
2021/04/14 08:41:41;;;;;;;9.27;4.67;;;;;;;;;;5068916;28;20589;-42
2021/04/14 08:44:09;;;;;;;6.00;3.97;;;;;;;;;;5068938;28;20574;-42
2021/04/14 08:46:38;;;;;;;10.00;4.27;;;;;;;;;;5051123;28;20628;-42
2021/04/14 08:49:05;;;;;;;7.63;3.80;;;;;;;;;;5049391;28;20583;-41
2021/04/14 08:51:33;;;;;;;5.63;3.30;;;;;;;;;;5049297;28;20637;-42
2021/04/14 08:53:58;;;;;;;5.20;4.07;;;;;;;;;;5049090;28;20589;-43
2021/04/14 08:56:26;;;;;;;4.20;3.80;;;;;;;;;;5060396;28;21244;-42
2021/04/14 08:58:52;;;;;;;6.70;3.93;;;;;;;;;;5069533;28;20223;-42
2021/04/14 09:01:17;;;;;;;10.30;4.17;;;;;;;;;;5068404;28;21190;-42
2021/04/14 09:03:43;;;;;;;10.02;3.90;;;;;;;;;;5068681;28;21149;-42
2021/04/14 09:06:10;;;;;;;6.27;3.03;;;;;;;;;;5067579;28;20279;-42
2021/04/14 09:08:36;;;;;;;3.87;2.70;;;;;;;;;;5068514;28;20697;-42
2021/04/14 09:11:03;;;;;;;7.00;2.50;;;;;;;;;;5068605;28;20686;-43
2021/04/14 09:13:44;;;;;;;5.07;3.67;;;;;;;;;;5068257;28;20572;-42
2021/04/14 09:16:09;;;;;;;6.77;3.57;;;;;;;;;;5054662;28;21038;-42
2021/04/14 09:18:37;;;;;;;8.60;3.70;;;;;;;;;;5048838;28;20602;-42
2021/04/14 09:21:05;;;;;;;4.97;3.53;;;;;;;;;;5048956;28;20175;-43
2021/04/14 09:23:31;;;;;;;8.43;3.90;;;;;;;;;;5048578;28;20676;-43
2021/04/14 09:26:00;;;;;;;4.90;3.20;;;;;;;;;;5056156;28;20705;-42
2021/04/14 09:28:27;;;;;;;4.33;3.37;;;;;;;;;;5054482;28;20193;-42
2021/04/14 09:30:54;;;;;;;4.73;3.03;;;;;;;;;;5048701;28;21018;-42
2021/04/14 09:33:21;;;;;;;4.67;3.30;;;;;;;;;;5048346;28;21101;-42
2021/04/14 09:35:49;;;;;;;4.27;3.00;;;;;;;;;;5048138;28;21421;-43
2021/04/14 09:38:23;;;;;;;2.73;2.50;;;;;;;;;;5058901;28;20649;-42
2021/04/14 09:40:49;;;;;;;5.80;2.70;;;;;;;;;;5068198;28;20636;-43
2021/04/14 09:43:34;;;;;;;3.70;2.80;;;;;;;;;;5068552;28;21067;-42
2021/04/14 09:46:01;;;;;;;6.73;3.93;;;;;;;;;;5055472;28;20190;-43
2021/04/14 09:48:37;;;;;;;5.20;3.03;;;;;;;;;;5059799;28;21152;-43
2021/04/14 09:51:02;;;;;;;3.90;2.83;;;;;;;;;;5065408;28;20637;-44
2021/04/14 09:53:31;;;;;;;4.33;3.23;;;;;;;;;;5067511;28;20686;-43
2021/04/14 09:55:56;;;;;;;7.37;3.03;;;;;;;;;;5058585;28;20174;-43
2021/04/14 09:58:24;;;;;;;5.23;3.00;;;;;;;;;;5047859;28;20600;-43
2021/04/14 10:00:52;;;;;;;5.50;3.40;;;;;;;;;;5047659;28;20588;-42
2021/04/14 10:03:26;;;;;;;3.93;2.70;;;;;;;;;;5047727;28;20625;-43
2021/04/14 10:05:53;;;;;;;4.57;2.83;;;;;;;;;;5050604;28;20767;-43
2021/04/14 10:08:18;;;;;;;6.40;3.27;;;;;;;;;;5067413;28;20675;-43
2021/04/14 10:10:45;;;;;;;5.50;2.67;;;;;;;;;;5067838;28;21006;-43
2021/04/14 10:13:12;;;;;;;8.23;3.20;;;;;;;;;;5067599;28;20176;-42
2021/04/14 10:15:38;;;;;;;4.87;3.40;;;;;;;;;;5057510;28;20611;-41
2021/04/14 10:18:24;;;;;;;4.60;3.07;;;;;;;;;;5047709;28;20608;-42
2021/04/14 10:20:49;;;;;;;3.13;2.83;;;;;;;;;;5047023;28;21168;-42
2021/04/14 10:23:17;;;;;;;4.40;3.17;;;;;;;;;;5047406;28;20585;-42
2021/04/14 10:25:43;;;;;;;6.93;3.23;;;;;;;;;;5051954;28;20183;-42
2021/04/14 10:28:08;;;;;;;4.70;2.47;;;;;;;;;;5067720;28;20584;-42
2021/04/14 10:30:35;;;;;;;5.20;2.60;;;;;;;;;;5066930;28;20200;-42
2021/04/14 10:33:05;;;;;;;2.80;2.60;;;;;;;;;;5067532;28;20183;-43
2021/04/14 10:35:31;;;;;;;4.97;2.50;;;;;;;;;;5066777;28;20574;-43
2021/04/14 10:37:57;;;;;;;2.90;2.30;;;;;;;;;;5065895;28;20700;-42
2021/04/14 10:40:22;;;;;;;8.20;2.60;;;;;;;;;;5066822;28;21047;-42
2021/04/14 10:42:48;;;;;;;2.65;2.10;;;;;;;;;;5067359;28;20234;-42
2021/04/14 10:45:15;;;;;;;4.20;2.60;;;;;;;;;;5061371;28;20183;-42
2021/04/14 10:47:41;;;;;;;4.40;2.27;;;;;;;;;;5047055;28;20614;-42
2021/04/14 10:50:19;;;;;;;5.23;2.70;;;;;;;;;;5047194;28;20641;-42
2021/04/14 10:52:48;;;;;;;4.63;3.27;;;;;;;;;;5047361;28;21267;-42
2021/04/14 10:55:16;;;;;;;6.30;2.80;;;;;;;;;;5048905;28;20598;-42
2021/04/14 10:57:42;;;;;;;4.13;2.73;;;;;;;;;;5066622;28;21034;-42
2021/04/14 11:00:10;;;;;;;3.17;2.47;;;;;;;;;;5066869;28;20596;-42
2021/04/14 11:02:36;;;;;;;3.47;2.00;;;;;;;;;;5067417;28;20589;-42
2021/04/14 11:05:01;;;;;;;3.00;2.30;;;;;;;;;;5067367;28;20574;-42
2021/04/14 11:07:28;;;;;;;3.07;2.40;;;;;;;;;;5065057;28;20654;-42
2021/04/14 11:09:56;;;;;;;2.87;2.40;;;;;;;;;;5067361;28;20175;-43
2021/04/14 11:12:22;;;;;;;4.03;2.67;;;;;;;;;;5067618;28;20580;-41
2021/04/14 11:14:49;;;;;;;2.30;2.10;;;;;;;;;;5067041;28;20621;-42
2021/04/14 11:17:16;;;;;;;3.17;2.00;;;;;;;;;;5067220;28;21166;-41
2021/04/14 11:19:51;;;;;;;2.40;2.13;;;;;;;;;;5050490;28;20601;-42
2021/04/14 11:22:16;;;;;;;1.90;1.77;;;;;;;;;;5047288;28;20619;-43
2021/04/14 11:24:44;;;;;;;1.60;1.50;;;;;;;;;;5046655;28;20673;-41
2021/04/14 11:27:14;;;;;;;3.20;1.83;;;;;;;;;;5064868;28;20301;-43
2021/04/14 11:29:39;;;;;;;2.60;2.10;;;;;;;;;;5066702;28;20588;-42
2021/04/14 11:32:18;;;;;;;2.83;1.77;;;;;;;;;;5067076;28;20631;-42
2021/04/14 11:34:53;;;;;;;3.63;1.90;;;;;;;;;;5066349;28;20184;-43
2021/04/14 11:37:20;;;;;;;3.70;3.17;;;;;;;;;;5068753;28;20607;-42
2021/04/14 11:39:53;;;;;;;4.30;3.10;;;;;;;;;;5070571;28;20601;-42
2021/04/14 11:42:20;;;;;;;5.80;2.50;;;;;;;;;;5070495;28;21172;-42
2021/04/14 11:44:56;;;;;;;3.43;2.17;;;;;;;;;;5068528;28;20992;-43
2021/04/14 11:47:23;;;;;;;2.83;1.90;;;;;;;;;;5068759;28;20608;-43
2021/04/14 11:49:48;;;;;;;3.33;2.47;;;;;;;;;;5064850;28;20602;-43
2021/04/14 11:52:29;;;;;;;2.20;2.00;;;;;;;;;;5068799;28;20570;-42
2021/04/14 11:54:57;;;;;;;3.43;2.33;;;;;;;;;;5069229;28;20170;-43
2021/04/14 11:57:27;;;;;;;3.43;2.00;;;;;;;;;;5069565;28;21154;-43
2021/04/14 12:00:04;;;;;;;3.13;1.97;;;;;;;;;;5069708;28;20590;-43
2021/04/14 12:02:29;;;;;;;2.20;2.00;;;;;;;;;;5070091;28;20655;-43
2021/04/14 12:05:03;;;;;;;4.10;2.80;;;;;;;;;;5070260;28;20578;-43
2021/04/14 12:07:28;;;;;;;4.67;2.77;;;;;;;;;;5068090;28;20223;-43
2021/04/14 12:09:53;;;;;;;2.80;2.07;;;;;;;;;;5069990;28;20860;-43
2021/04/14 12:12:19;;;;;;;4.43;2.53;;;;;;;;;;5070057;28;20222;-43
2021/04/14 12:14:44;;;;;;;2.20;2.00;;;;;;;;;;5067424;28;20602;-43
2021/04/14 12:17:11;;;;;;;4.13;2.30;;;;;;;;;;5049775;28;20186;-43
2021/04/14 12:19:37;;;;;;;3.07;1.93;;;;;;;;;;5049579;28;20724;-43
2021/04/14 12:22:02;;;;;;;2.77;2.20;;;;;;;;;;5049761;28;20586;-43
2021/04/14 12:24:27;;;;;;;3.80;2.63;;;;;;;;;;5049742;28;20664;-43
2021/04/14 12:26:52;;;;;;;3.20;2.13;;;;;;;;;;5063725;28;20253;-42
2021/04/14 12:29:17;;;;;;;2.40;1.87;;;;;;;;;;5069867;28;20175;-42
2021/04/14 12:31:43;;;;;;;2.63;1.87;;;;;;;;;;5068807;28;20206;-41
2021/04/14 12:34:09;;;;;;;3.60;2.03;;;;;;;;;;5069599;28;20535;-43
2021/04/14 12:36:34;;;;;;;3.63;2.40;;;;;;;;;;5067379;28;20960;-42
2021/04/14 12:39:00;;;;;;;3.17;2.27;;;;;;;;;;5069570;28;20239;-42
2021/04/14 12:41:26;;;;;;;2.10;1.93;;;;;;;;;;5069429;28;20256;-43
2021/04/14 12:43:52;;;;;;;2.87;2.20;;;;;;;;;;5067965;28;20164;-42
2021/04/14 12:46:19;;;;;;;6.23;2.37;;;;;;;;;;5069268;28;21097;-43
2021/04/14 12:48:45;;;;;;;4.80;2.70;;;;;;;;;;5068749;28;20251;-47
2021/04/14 12:51:10;;;;;;;2.70;2.50;;;;;;;;;;5069602;28;21069;-43
2021/04/14 12:53:40;;;;;;;3.13;2.25;;;;;;;;;;5067689;28;20163;-43
2021/04/14 12:56:06;;;;;;;2.17;1.97;;;;;;;;;;5069086;28;20712;-44
2021/04/14 12:58:37;;;;;;;2.70;2.50;;;;;;;;;;5069364;28;20603;-43
2021/04/14 13:01:03;;;;;;;3.53;2.47;;;;;;;;;;5068976;28;20256;-42
2021/04/14 13:03:31;;;;;;;3.97;2.60;;;;;;;;;;5069180;28;20679;-42
2021/04/14 13:06:00;;;;;;;3.10;2.53;;;;;;;;;;5067257;28;20611;-42
2021/04/14 13:08:29;;;;;;;2.53;2.33;;;;;;;;;;5068762;28;20691;-42
2021/04/14 13:10:57;;;;;;;4.80;2.70;;;;;;;;;;5069110;28;20632;-42
2021/04/14 13:13:23;;;;;;;2.20;1.93;;;;;;;;;;5068822;28;20568;-42
2021/04/14 13:16:03;;;;;;;3.03;2.07;;;;;;;;;;5067069;28;20608;-42
2021/04/14 13:18:29;;;;;;;2.30;2.10;;;;;;;;;;5051411;28;20570;-43
2021/04/14 13:20:56;;;;;;;3.07;2.33;;;;;;;;;;5061150;28;20600;-43
2021/04/14 13:23:28;;;;;;;3.70;2.40;;;;;;;;;;5068939;28;20613;-43
2021/04/14 13:25:56;;;;;;;2.87;2.20;;;;;;;;;;5063067;28;20683;-43
2021/04/14 13:28:26;;;;;;;3.97;2.30;;;;;;;;;;5048979;28;21056;-43
2021/04/14 13:30:57;;;;;;;2.63;2.10;;;;;;;;;;5048783;28;21236;-43
2021/04/14 13:33:38;;;;;;;7.33;2.60;;;;;;;;;;5064501;28;20592;-43
2021/04/14 13:36:09;;;;;;;1.97;1.83;;;;;;;;;;5066312;28;20667;-43
2021/04/14 13:38:36;;;;;;;2.50;2.20;;;;;;;;;;5068487;28;20582;-44
2021/04/14 13:41:10;;;;;;;3.23;2.20;;;;;;;;;;5068363;28;20646;-43
2021/04/14 13:43:41;;;;;;;4.23;2.20;;;;;;;;;;5068686;28;21144;-42
2021/04/14 13:46:16;;;;;;;2.40;2.03;;;;;;;;;;5054869;28;20616;-42
2021/04/14 13:48:44;;;;;;;3.57;1.73;;;;;;;;;;5047509;28;21118;-43
2021/04/14 13:51:14;;;;;;;1.97;1.87;;;;;;;;;;5046538;28;20746;-43
2021/04/14 13:53:40;;;;;;;3.77;2.77;;;;;;;;;;5048013;28;20582;-42
2021/04/14 13:56:07;;;;;;;2.40;2.20;;;;;;;;;;5055833;28;20690;-42
2021/04/14 13:58:35;;;;;;;4.30;2.40;;;;;;;;;;5067564;28;20585;-43
2021/04/14 14:01:02;;;;;;;2.00;1.80;;;;;;;;;;5067996;28;20799;-43
2021/04/14 14:03:28;;;;;;;3.83;1.80;;;;;;;;;;5067907;28;20581;-43
2021/04/14 14:05:58;;;;;;;2.70;2.00;;;;;;;;;;5066119;28;20605;-43
2021/04/14 14:08:30;;;;;;;5.40;2.67;;;;;;;;;;5067156;28;21275;-43
2021/04/14 14:10:55;;;;;;;3.23;1.90;;;;;;;;;;5067665;28;20642;-43
2021/04/14 14:13:27;;;;;;;2.30;2.10;;;;;;;;;;5067607;28;20585;-43
2021/04/14 14:15:53;;;;;;;2.40;2.00;;;;;;;;;;5056200;28;20170;-43
2021/04/14 14:18:18;;;;;;;3.88;2.13;;;;;;;;;;5047800;28;20663;-43
2021/04/14 14:20:43;;;;;;;1.87;1.77;;;;;;;;;;5047555;28;20659;-43
2021/04/14 14:23:11;;;;;;;2.78;1.80;;;;;;;;;;5047508;28;20197;-43
2021/04/14 14:25:37;;;;;;;5.43;1.90;;;;;;;;;;5051020;28;20189;-42
2021/04/14 14:28:02;;;;;;;5.03;2.00;;;;;;;;;;5060914;28;20611;-43
2021/04/14 14:30:28;;;;;;;3.03;2.07;;;;;;;;;;5059078;28;20633;-45
2021/04/14 14:32:54;;;;;;;3.23;1.50;;;;;;;;;;5060517;28;20680;-44
2021/04/14 14:35:20;;;;;;;2.87;1.77;;;;;;;;;;5060724;28;20264;-44
2021/04/14 14:37:45;;;;;;;2.10;1.80;;;;;;;;;;5059465;28;20694;-43
2021/04/14 14:40:13;;;;;;;2.50;1.67;;;;;;;;;;5057574;28;21467;-43
2021/04/14 14:42:42;;;;;;;2.83;2.40;;;;;;;;;;5051620;28;20496;-45